Time;durP1;ratioP1;P1;durP2;ratioP2;P2;SDS_P1;SDS_P2;PMS_P1;PMS_P2;Temp;Humidity;BMP_temperature;BMP_pressure;BME280_temperature;BME280_humidity;BME280_pressure;Samples;Min_cycle;Max_cycle;Signal;HPM_P1;HPM_P2
2021/09/08 00:01:09;;;;;;;8.07;6.93;;;;;;;14.54;76.92;101437.31;5060329;28;20660;-72
2021/09/08 00:03:37;;;;;;;8.33;7.23;;;;;;;14.50;77.27;101435.84;5069427;28;20564;-72
2021/09/08 00:06:04;;;;;;;8.70;7.00;;;;;;;14.48;77.28;101445.78;5073551;28;20440;-72
2021/09/08 00:08:30;;;;;;;9.67;7.10;;;;;;;14.43;77.52;101439.88;5068298;28;20583;-72
2021/09/08 00:10:57;;;;;;;9.23;6.67;;;;;;;14.44;77.84;101446.09;5072585;28;20255;-72
2021/09/08 00:13:24;;;;;;;12.07;7.40;;;;;;;14.44;77.98;101440.72;5072685;28;20662;-72
2021/09/08 00:15:51;;;;;;;8.90;6.90;;;;;;;14.43;77.78;101442.56;5072677;28;20255;-72
2021/09/08 00:18:18;;;;;;;9.63;6.97;;;;;;;14.43;77.88;101442.56;5072276;28;20573;-72
2021/09/08 00:20:46;;;;;;;9.37;7.33;;;;;;;14.43;78.16;101445.22;5072680;28;20954;-72
2021/09/08 00:23:13;;;;;;;9.20;6.50;;;;;;;14.44;77.85;101443.41;5072170;28;20319;-73
2021/09/08 00:25:39;;;;;;;9.60;7.20;;;;;;;14.43;77.99;101445.22;5068250;28;20713;-72
2021/09/08 00:28:06;;;;;;;7.30;6.60;;;;;;;14.41;77.67;101447.16;5071759;28;20306;-71
2021/09/08 00:30:33;;;;;;;8.40;6.90;;;;;;;14.40;77.71;101444.53;5070952;28;20208;-72
2021/09/08 00:33:00;;;;;;;7.57;6.67;;;;;;;14.39;77.62;101446.34;5067221;28;20212;-72
2021/09/08 00:35:27;;;;;;;9.93;7.17;;;;;;;14.38;77.73;101436.59;5070234;28;20233;-72
2021/09/08 00:37:55;;;;;;;8.87;6.73;;;;;;;14.35;77.78;101444.84;5072354;28;20215;-72
2021/09/08 00:40:23;;;;;;;9.20;7.03;;;;;;;14.34;77.66;101440.44;5071476;28;20205;-73
2021/09/08 00:42:50;;;;;;;6.87;6.17;;;;;;;14.31;77.72;101435.31;5069849;28;20232;-72
2021/09/08 00:45:17;;;;;;;9.57;7.27;;;;;;;14.30;77.89;101438.94;5069746;28;20246;-73
2021/09/08 00:47:43;;;;;;;8.77;6.20;;;;;;;14.30;77.82;101438.09;5070909;28;20720;-72
2021/09/08 00:50:12;;;;;;;7.90;6.27;;;;;;;14.27;77.38;101435.59;5069410;28;20734;-72
2021/09/08 00:52:39;;;;;;;8.77;6.80;;;;;;;14.19;77.49;101433.41;5069563;28;20267;-72
2021/09/08 00:55:11;;;;;;;6.40;5.40;;;;;;;14.10;77.32;101434.03;5071757;28;20300;-73
2021/09/08 00:57:38;;;;;;;7.80;6.10;;;;;;;14.03;77.20;101433.56;5071731;28;20244;-72
2021/09/08 01:00:06;;;;;;;8.73;5.70;;;;;;;13.97;77.33;101436.66;5070330;28;20205;-72
2021/09/08 01:02:33;;;;;;;8.67;6.30;;;;;;;13.94;77.48;101439.53;5064082;28;20240;-72
2021/09/08 01:05:00;;;;;;;7.73;5.83;;;;;;;13.89;77.27;101434.47;5071459;28;20228;-72
2021/09/08 01:07:27;;;;;;;8.23;5.67;;;;;;;13.86;77.00;101434.66;5071781;28;20295;-73
2021/09/08 01:09:54;;;;;;;7.53;5.30;;;;;;;13.84;76.83;101433.03;5070363;28;20208;-73
2021/09/08 01:12:22;;;;;;;5.70;5.10;;;;;;;13.81;76.79;101430.56;5071809;28;20214;-73
2021/09/08 01:14:49;;;;;;;7.10;5.77;;;;;;;13.77;77.31;101419.22;5066284;28;20232;-72
2021/09/08 01:17:18;;;;;;;7.10;5.67;;;;;;;13.72;76.73;101418.63;5066115;28;20228;-73
2021/09/08 01:19:45;;;;;;;7.77;5.50;;;;;;;13.68;77.07;101413.56;5069994;28;20633;-73
2021/09/08 01:22:12;;;;;;;7.17;5.80;;;;;;;13.62;76.94;101414.81;5071163;28;20240;-72
2021/09/08 01:24:43;;;;;;;5.40;4.90;;;;;;;13.58;76.85;101407.97;5070746;28;20237;-72
2021/09/08 01:27:10;;;;;;;6.20;5.63;;;;;;;13.54;76.87;101417.13;5069491;28;20193;-73
2021/09/08 01:29:37;;;;;;;7.63;5.53;;;;;;;13.49;76.64;101417.41;5071057;28;20614;-72
2021/09/08 01:32:04;;;;;;;9.23;6.43;;;;;;;13.47;77.14;101416.66;5065210;28;20209;-72
2021/09/08 01:34:31;;;;;;;8.53;6.60;;;;;;;13.48;77.65;101415.69;5068438;28;20249;-72
2021/09/08 01:36:58;;;;;;;8.40;6.97;;;;;;;13.48;77.66;101418.38;5071428;28;20233;-73
2021/09/08 01:39:24;;;;;;;7.23;6.50;;;;;;;13.49;78.19;101416.56;5063683;28;20240;-72
2021/09/08 01:41:52;;;;;;;8.77;6.20;;;;;;;13.50;78.51;101410.25;5071059;28;20262;-72
2021/09/08 01:44:21;;;;;;;10.43;6.90;;;;;;;13.49;78.45;101412.06;5065060;28;20270;-72
2021/09/08 01:46:50;;;;;;;8.60;6.63;;;;;;;13.47;78.62;101405.94;5068539;28;20208;-72
2021/09/08 01:49:17;;;;;;;8.10;6.70;;;;;;;13.47;78.82;101418.47;5070273;28;20288;-72
2021/09/08 01:51:44;;;;;;;8.37;6.80;;;;;;;13.45;79.37;101415.03;5069693;28;20233;-72
2021/09/08 01:54:10;;;;;;;9.70;6.83;;;;;;;13.45;79.06;101423.06;5066934;28;20714;-72
2021/09/08 01:56:37;;;;;;;7.27;6.30;;;;;;;13.43;79.26;101409.81;5068832;28;20225;-73
2021/09/08 01:59:05;;;;;;;7.37;6.57;;;;;;;13.43;79.35;101419.66;5068533;28;20209;-72
2021/09/08 02:01:32;;;;;;;8.20;6.13;;;;;;;13.41;79.17;101417.06;5066086;28;20212;-72
2021/09/08 02:03:59;;;;;;;7.60;6.73;;;;;;;13.40;79.53;101409.13;5070114;28;20211;-72
2021/09/08 02:06:28;;;;;;;8.57;6.47;;;;;;;13.39;79.58;101416.28;5063989;28;20627;-69
2021/09/08 02:08:58;;;;;;;8.70;6.47;;;;;;;13.38;79.38;101419.94;5073229;28;20673;-72
2021/09/08 02:11:25;;;;;;;7.23;6.53;;;;;;;13.35;79.23;101411.22;5076677;28;20677;-72
2021/09/08 02:13:52;;;;;;;8.77;6.77;;;;;;;13.31;79.12;101409.69;5071503;28;20512;-72
2021/09/08 02:16:21;;;;;;;8.37;6.40;;;;;;;13.28;79.46;101416.09;5068972;28;20254;-73
2021/09/08 02:18:49;;;;;;;7.73;6.47;;;;;;;13.25;79.57;101410.97;5068888;28;20213;-72
2021/09/08 02:21:16;;;;;;;8.97;6.53;;;;;;;13.24;79.75;101413.72;5068245;28;20212;-72
2021/09/08 02:23:43;;;;;;;8.50;6.97;;;;;;;13.25;80.01;101418.13;5070745;28;20746;-72
2021/09/08 02:26:09;;;;;;;10.93;7.17;;;;;;;13.24;79.78;101413.72;5067699;28;20260;-72
2021/09/08 02:28:36;;;;;;;8.27;6.33;;;;;;;13.20;79.41;101413.91;5070457;28;20638;-72
2021/09/08 02:31:03;;;;;;;9.13;6.07;;;;;;;13.16;79.29;101409.69;5065651;28;20597;-72
2021/09/08 02:33:32;;;;;;;7.33;6.13;;;;;;;13.12;79.22;101399.25;5068144;28;20217;-72
2021/09/08 02:35:59;;;;;;;8.17;5.77;;;;;;;13.06;79.22;101410.34;5065804;28;20229;-72
2021/09/08 02:38:27;;;;;;;7.80;6.13;;;;;;;12.98;79.40;101394.75;5065560;28;20689;-72
2021/09/08 02:40:54;;;;;;;9.17;6.67;;;;;;;12.94;79.40;101395.88;5064461;28;20266;-72
2021/09/08 02:43:21;;;;;;;8.13;5.90;;;;;;;12.91;79.69;101396.06;5068501;28;20220;-72
2021/09/08 02:45:48;;;;;;;10.20;6.73;;;;;;;12.89;80.10;101394.47;5069941;28;20283;-73
2021/09/08 02:48:14;;;;;;;7.10;6.13;;;;;;;12.87;79.95;101386.53;5068766;28;20210;-70
2021/09/08 02:50:42;;;;;;;7.00;6.30;;;;;;;12.85;80.19;101391.13;5068085;28;20208;-72
2021/09/08 02:53:09;;;;;;;9.27;7.27;;;;;;;12.82;80.34;101391.31;5065700;28;20679;-73
2021/09/08 02:55:36;;;;;;;7.63;6.87;;;;;;;12.79;80.32;101381.66;5066833;28;20255;-72
2021/09/08 02:58:03;;;;;;;7.90;6.63;;;;;;;12.76;80.48;101375.63;5069986;28;20290;-73
2021/09/08 03:00:29;;;;;;;11.43;6.77;;;;;;;12.72;80.46;101376.78;5069288;28;20476;-72
2021/09/08 03:02:56;;;;;;;7.40;6.33;;;;;;;12.65;80.35;101378.09;5067954;28;20204;-72
2021/09/08 03:05:23;;;;;;;7.87;6.00;;;;;;;12.59;80.60;101383.81;5069929;28;20319;-72
2021/09/08 03:07:51;;;;;;;7.10;6.40;;;;;;;12.56;80.73;101381.31;5070268;28;20349;-73
2021/09/08 03:10:18;;;;;;;7.80;6.37;;;;;;;12.52;80.78;101378.84;5068416;28;20265;-72
2021/09/08 03:12:45;;;;;;;7.40;5.83;;;;;;;12.50;80.83;101377.22;5065192;28;20280;-72
2021/09/08 03:15:12;;;;;;;7.40;5.90;;;;;;;12.49;80.93;101379.03;5065029;28;20263;-72
2021/09/08 03:17:39;;;;;;;9.20;6.33;;;;;;;12.50;80.90;101372.72;5066441;28;20227;-72
2021/09/08 03:20:07;;;;;;;9.33;7.10;;;;;;;12.51;81.16;101376.25;5069109;28;20204;-73
2021/09/08 03:22:34;;;;;;;7.50;6.70;;;;;;;12.51;81.06;101377.13;5065484;28;20293;-72
2021/09/08 03:25:02;;;;;;;10.43;6.27;;;;;;;12.52;81.49;101381.53;5066262;28;20263;-72
2021/09/08 03:27:29;;;;;;;8.97;7.00;;;;;;;12.52;81.33;101376.19;5068113;28;20210;-72
2021/09/08 03:29:56;;;;;;;10.13;6.73;;;;;;;12.50;81.26;101377.22;5068862;28;20203;-72
2021/09/08 03:32:23;;;;;;;7.50;6.70;;;;;;;12.48;81.12;101379.97;5064718;28;20258;-72
2021/09/08 03:34:49;;;;;;;9.27;6.53;;;;;;;12.47;81.47;101383.59;5064886;28;20276;-72
2021/09/08 03:37:16;;;;;;;9.27;6.47;;;;;;;12.48;81.64;101379.13;5070636;28;20735;-73
2021/09/08 03:39:43;;;;;;;8.10;6.60;;;;;;;12.48;81.67;101379.97;5069356;28;20298;-72
2021/09/08 03:42:11;;;;;;;7.37;6.63;;;;;;;12.50;81.35;101379.88;5069561;28;20245;-72
2021/09/08 03:44:38;;;;;;;9.37;6.57;;;;;;;12.49;81.67;101379.03;5069615;28;20240;-72
2021/09/08 03:47:05;;;;;;;9.17;6.83;;;;;;;12.50;81.45;101370.06;5071867;28;20212;-72
2021/09/08 03:49:32;;;;;;;8.67;6.70;;;;;;;12.51;81.58;101363.78;5059069;28;20205;-72
2021/09/08 03:51:58;;;;;;;7.77;6.40;;;;;;;12.51;81.68;101366.44;5075580;28;20205;-72
2021/09/08 03:54:25;;;;;;;6.13;5.43;;;;;;;12.52;81.63;101370.84;5078560;28;20262;-72
2021/09/08 03:56:51;;;;;;;8.50;6.37;;;;;;;12.47;80.97;101372.91;5069596;28;20301;-72
2021/09/08 03:59:21;;;;;;;9.43;7.00;;;;;;;12.42;81.21;101366.97;5072816;28;20591;-72
2021/09/08 04:01:48;;;;;;;9.07;6.07;;;;;;;12.36;81.18;101367.31;5074139;28;20249;-72
2021/09/08 04:04:14;;;;;;;8.70;6.57;;;;;;;12.32;81.10;101357.81;5067980;28;20282;-71
2021/09/08 04:06:41;;;;;;;9.20;7.03;;;;;;;12.29;81.11;101357.13;5064082;28;20700;-72
2021/09/08 04:09:08;;;;;;;9.73;7.40;;;;;;;12.26;80.95;101359.97;5066569;28;20205;-73
2021/09/08 04:11:34;;;;;;;7.73;6.77;;;;;;;12.22;80.82;101356.59;5069297;28;20221;-71
2021/09/08 04:14:01;;;;;;;8.93;6.70;;;;;;;12.17;81.14;101364.06;5066701;28;20287;-72
2021/09/08 04:16:29;;;;;;;7.80;5.97;;;;;;;12.12;80.88;101360.78;5066129;28;20230;-72
2021/09/08 04:18:56;;;;;;;8.97;6.77;;;;;;;12.06;81.08;101356.66;5059392;28;20215;-71
2021/09/08 04:21:23;;;;;;;8.53;7.30;;;;;;;12.06;81.17;101355.78;5065210;28;20225;-72
2021/09/08 04:23:49;;;;;;;8.07;6.63;;;;;;;12.04;81.01;101357.69;5062781;28;20274;-71
2021/09/08 04:26:16;;;;;;;7.63;6.83;;;;;;;12.02;81.26;101360.44;5061115;28;20291;-72
2021/09/08 04:28:43;;;;;;;9.10;6.97;;;;;;;12.00;81.34;101357.00;5066065;28;20643;-72
2021/09/08 04:31:10;;;;;;;8.17;6.63;;;;;;;12.01;81.43;101356.03;5063482;28;20250;-72
2021/09/08 04:33:38;;;;;;;8.60;6.40;;;;;;;12.00;81.51;101356.16;5068250;28;20210;-72
2021/09/08 04:36:05;;;;;;;8.73;7.17;;;;;;;11.98;81.31;101347.38;5058458;28;20225;-72
2021/09/08 04:38:32;;;;;;;9.43;6.80;;;;;;;11.95;81.52;101351.09;5060729;28;20236;-72
2021/09/08 04:40:59;;;;;;;9.17;6.60;;;;;;;11.93;81.73;101352.13;5061817;28;20212;-72
2021/09/08 04:43:26;;;;;;;8.07;6.60;;;;;;;11.90;81.65;101355.81;5075202;28;20224;-72
2021/09/08 04:45:54;;;;;;;8.27;6.50;;;;;;;11.87;81.93;101349.78;5073484;28;20291;-72
2021/09/08 04:48:21;;;;;;;9.60;6.83;;;;;;;11.85;82.24;101349.00;5061328;28;20201;-71
2021/09/08 04:50:49;;;;;;;8.93;7.00;;;;;;;11.82;82.35;101348.25;5057219;28;20205;-73
2021/09/08 04:53:16;;;;;;;10.13;7.63;;;;;;;11.82;82.41;101355.41;5059693;28;20216;-72
2021/09/08 04:55:43;;;;;;;9.47;7.97;;;;;;;11.81;82.68;101359.03;5063362;28;20223;-72
2021/09/08 04:58:09;;;;;;;10.50;7.57;;;;;;;11.80;82.83;101355.50;5061686;28;20250;-71
2021/09/08 05:00:36;;;;;;;11.10;8.30;;;;;;;11.80;82.94;101355.50;5061562;28;20302;-72
2021/09/08 05:03:03;;;;;;;14.20;8.87;;;;;;;11.81;83.26;101353.69;5061801;28;20234;-72
2021/09/08 05:05:29;;;;;;;11.00;9.50;;;;;;;11.82;83.43;101361.59;5061120;28;20267;-72
2021/09/08 05:07:57;;;;;;;14.80;8.80;;;;;;;11.83;83.90;101357.97;5060222;28;20207;-73
2021/09/08 05:10:24;;;;;;;13.80;9.53;;;;;;;11.86;83.94;101361.41;5058851;28;20199;-70
2021/09/08 05:12:50;;;;;;;12.30;9.37;;;;;;;11.89;84.09;101358.56;5067191;28;20213;-72
2021/09/08 05:15:17;;;;;;;10.13;8.87;;;;;;;11.89;84.30;101351.44;5066006;28;20251;-72
2021/09/08 05:17:44;;;;;;;11.37;9.23;;;;;;;11.90;84.36;101350.47;5054526;28;20318;-73
2021/09/08 05:20:11;;;;;;;10.83;9.07;;;;;;;11.93;84.59;101347.63;5059859;28;20660;-72
2021/09/08 05:22:38;;;;;;;15.60;9.77;;;;;;;11.96;84.91;101349.28;5063450;28;20810;-72
2021/09/08 05:25:07;;;;;;;13.70;9.87;;;;;;;12.00;84.99;101348.16;5077727;22;21614;-72
2021/09/08 05:27:34;;;;;;;12.73;9.87;;;;;;;12.04;85.20;101347.00;5042324;28;20223;-72
2021/09/08 05:30:01;;;;;;;11.23;9.30;;;;;;;12.08;85.31;101345.88;5038694;28;20198;-75
2021/09/08 05:32:28;;;;;;;14.23;9.87;;;;;;;12.12;85.47;101350.97;5034894;28;20215;-78
2021/09/08 05:34:56;;;;;;;10.23;9.20;;;;;;;12.17;85.59;101345.34;5039652;28;20225;-76
2021/09/08 05:37:23;;;;;;;10.50;9.30;;;;;;;12.23;85.88;101352.13;5042787;28;20232;-76
2021/09/08 05:39:52;;;;;;;13.67;9.57;;;;;;;12.27;85.92;101343.84;5046598;28;20205;-76
2021/09/08 05:42:20;;;;;;;14.83;9.70;;;;;;;12.34;86.14;101353.22;5041695;28;20206;-74
2021/09/08 05:44:47;;;;;;;10.90;9.30;;;;;;;12.41;86.45;101349.22;5034840;28;20237;-75
2021/09/08 05:47:14;;;;;;;13.33;9.80;;;;;;;12.48;86.38;101342.56;5034122;28;20198;-76
2021/09/08 05:49:40;;;;;;;11.37;9.23;;;;;;;12.56;86.57;101346.56;5035934;28;20202;-75
2021/09/08 05:52:07;;;;;;;13.60;9.90;;;;;;;12.64;86.92;101353.19;5033860;28;20510;-76
2021/09/08 05:54:33;;;;;;;11.77;9.60;;;;;;;12.72;86.76;101350.06;5033563;28;20219;-76
2021/09/08 05:57:00;;;;;;;12.60;9.90;;;;;;;12.81;86.98;101344.13;5048263;28;20694;-76
2021/09/08 05:59:27;;;;;;;13.10;10.13;;;;;;;12.91;87.24;101347.09;5043826;28;20664;-75
2021/09/08 06:01:54;;;;;;;14.00;10.23;;;;;;;13.00;87.13;101342.03;5036071;28;20205;-76
2021/09/08 06:04:20;;;;;;;13.47;10.30;;;;;;;13.09;87.02;101338.78;5045713;28;20229;-76
2021/09/08 06:06:47;;;;;;;14.20;9.37;;;;;;;13.19;86.83;101339.09;5042906;28;20244;-76
2021/09/08 06:09:13;;;;;;;12.80;9.73;;;;;;;13.28;86.97;101338.50;5041802;28;20201;-76
2021/09/08 06:11:40;;;;;;;13.70;9.90;;;;;;;13.37;86.79;101343.28;5048226;28;20675;-75
2021/09/08 06:14:10;;;;;;;10.83;9.10;;;;;;;13.46;86.85;101340.00;5038420;28;20245;-76
2021/09/08 06:16:38;;;;;;;11.50;9.37;;;;;;;13.55;86.66;101338.56;5049230;28;20253;-76
2021/09/08 06:19:04;;;;;;;11.73;9.33;;;;;;;13.64;86.27;101343.31;5047569;28;20227;-76
2021/09/08 06:21:31;;;;;;;13.57;9.60;;;;;;;13.72;86.48;101341.00;5042734;28;20214;-77
2021/09/08 06:23:58;;;;;;;10.50;8.93;;;;;;;13.82;86.16;101347.47;5043043;28;20206;-76
2021/09/08 06:26:24;;;;;;;10.90;9.00;;;;;;;13.92;85.98;101346.88;5041419;28;20241;-76
2021/09/08 06:28:51;;;;;;;11.20;8.80;;;;;;;14.00;85.91;101341.84;5037678;28;20284;-75
2021/09/08 06:31:18;;;;;;;11.97;8.57;;;;;;;14.11;85.33;101340.19;5039209;28;20305;-76
2021/09/08 06:33:47;;;;;;;15.50;9.63;;;;;;;14.23;85.30;101351.88;5039081;28;20210;-76
2021/09/08 06:36:13;;;;;;;10.40;8.73;;;;;;;14.35;84.96;101356.41;5030764;28;20685;-76
2021/09/08 06:38:40;;;;;;;11.00;8.67;;;;;;;14.45;84.84;101340.59;5049083;28;20718;-77
2021/09/08 06:41:06;;;;;;;12.17;8.23;;;;;;;14.55;84.38;101345.22;5035534;28;20209;-76
2021/09/08 06:43:33;;;;;;;13.00;9.30;;;;;;;14.67;84.25;101340.00;5044975;28;20212;-75
2021/09/08 06:46:00;;;;;;;14.80;10.50;;;;;;;14.77;83.64;101341.06;5049416;28;20225;-76
2021/09/08 06:48:26;;;;;;;14.97;10.73;;;;;;;14.88;83.40;101338.47;5047300;28;20202;-76
2021/09/08 06:50:54;;;;;;;11.13;9.40;;;;;;;14.99;83.37;101341.28;5046843;28;20206;-78
2021/09/08 06:53:21;;;;;;;13.57;10.10;;;;;;;15.09;82.60;101331.59;5033406;28;20206;-76
2021/09/08 06:55:47;;;;;;;13.43;10.20;;;;;;;15.21;82.48;101330.72;5048756;28;20229;-78
2021/09/08 06:58:14;;;;;;;11.40;9.70;;;;;;;15.34;81.79;101335.19;5046809;28;20230;-76
2021/09/08 07:00:40;;;;;;;12.33;9.23;;;;;;;15.42;81.29;101338.16;5047021;28;20209;-76
2021/09/08 07:03:07;;;;;;;11.47;9.23;;;;;;;15.47;80.55;101330.66;5047641;28;20208;-75
2021/09/08 07:05:35;;;;;;;10.73;9.00;;;;;;;15.54;79.90;101331.94;5041967;28;20218;-78
2021/09/08 07:08:05;;;;;;;11.83;9.13;;;;;;;15.62;79.32;101334.94;5038502;28;20205;-76
2021/09/08 07:10:32;;;;;;;11.60;9.57;;;;;;;15.71;79.28;101328.03;5033061;28;20261;-76
2021/09/08 07:12:58;;;;;;;17.63;11.50;;;;;;;15.81;78.92;101327.22;5048387;28;20201;-76
2021/09/08 07:15:25;;;;;;;15.77;12.50;;;;;;;15.91;78.57;101325.59;5034062;28;20217;-78
2021/09/08 07:17:51;;;;;;;16.10;12.63;;;;;;;16.00;78.01;101334.75;5035868;28;20726;-75
2021/09/08 07:20:18;;;;;;;27.43;13.17;;;;;;;16.08;77.51;101324.31;5042879;28;20208;-76
2021/09/08 07:22:44;;;;;;;15.03;11.53;;;;;;;16.17;77.44;101323.59;5049942;28;20213;-77
2021/09/08 07:25:12;;;;;;;20.50;12.00;;;;;;;16.28;76.75;101318.28;5046084;28;20233;-76
2021/09/08 07:27:39;;;;;;;16.60;11.50;;;;;;;16.41;76.45;101320.88;5047764;28;20199;-77
2021/09/08 07:30:06;;;;;;;13.60;10.27;;;;;;;16.50;75.52;101312.09;5041767;28;20689;-76
2021/09/08 07:32:32;;;;;;;15.33;10.23;;;;;;;16.60;75.38;101312.25;5048228;28;20204;-76
2021/09/08 07:34:59;;;;;;;19.60;11.07;;;;;;;16.73;75.23;101307.63;5034434;28;20349;-76
2021/09/08 07:37:26;;;;;;;17.83;10.97;;;;;;;16.88;74.82;101306.41;5043963;28;20208;-76
2021/09/08 07:39:53;;;;;;;12.73;9.50;;;;;;;17.02;74.13;101311.56;5035231;28;20225;-78
2021/09/08 07:42:21;;;;;;;12.27;9.60;;;;;;;17.15;73.89;101306.06;5040012;28;20216;-78
2021/09/08 07:44:47;;;;;;;17.53;9.73;;;;;;;17.28;73.32;101312.16;5047740;28;20231;-76
2021/09/08 07:47:14;;;;;;;15.00;9.90;;;;;;;17.42;72.98;101302.94;5049332;28;20594;-76
2021/09/08 07:49:40;;;;;;;15.43;9.43;;;;;;;17.54;72.26;101306.50;5040574;28;20202;-76
2021/09/08 07:52:07;;;;;;;12.17;9.00;;;;;;;17.68;72.27;101307.09;5046813;28;20211;-76
2021/09/08 07:54:34;;;;;;;13.07;8.70;;;;;;;17.86;72.37;101312.81;5045477;28;20215;-77
2021/09/08 07:57:00;;;;;;;11.27;8.00;;;;;;;18.04;72.17;101308.56;5047657;28;20205;-76
2021/09/08 07:59:28;;;;;;;11.40;8.87;;;;;;;18.22;71.74;101305.28;5043729;28;20694;-77
2021/09/08 08:01:55;;;;;;;13.67;8.33;;;;;;;18.37;71.38;101303.97;5039372;28;20210;-77
2021/09/08 08:04:22;;;;;;;9.47;8.03;;;;;;;18.52;70.94;101302.66;5042877;28;20734;-77
2021/09/08 08:06:48;;;;;;;10.53;7.73;;;;;;;18.69;70.60;101302.09;5043195;28;20288;-78
2021/09/08 08:09:15;;;;;;;11.33;8.60;;;;;;;18.85;70.35;101300.75;5048922;28;20224;-77
2021/09/08 08:11:41;;;;;;;11.33;8.37;;;;;;;19.04;69.96;101303.53;5047412;28;20207;-76
2021/09/08 08:14:08;;;;;;;8.93;7.93;;;;;;;19.19;69.63;101299.47;5047859;28;20208;-77
2021/09/08 08:16:36;;;;;;;11.90;9.23;;;;;;;19.32;68.00;101304.66;5045527;28;20235;-74
2021/09/08 08:19:02;;;;;;;10.57;8.43;;;;;;;19.40;67.72;101305.66;5037162;28;20231;-77
2021/09/08 08:21:29;;;;;;;12.43;8.20;;;;;;;19.57;67.69;101306.84;5035536;28;20219;-79
2021/09/08 08:23:56;;;;;;;10.43;8.20;;;;;;;19.72;66.86;101304.59;5037792;28;20206;-75
2021/09/08 08:26:22;;;;;;;10.40;8.53;;;;;;;19.88;66.30;101304.06;5044484;28;20243;-75
2021/09/08 08:28:49;;;;;;;11.43;8.20;;;;;;;20.01;65.41;101302.78;5050878;28;21832;-75
2021/09/08 08:31:16;;;;;;;11.77;8.07;;;;;;;20.15;64.38;101303.34;5048062;28;20863;-75
2021/09/08 08:33:46;;;;;;;10.20;8.57;;;;;;;20.25;63.51;101306.88;5041471;28;20209;-75
2021/09/08 08:36:12;;;;;;;12.83;8.47;;;;;;;20.35;62.92;101292.38;5052132;28;20235;-77
2021/09/08 08:38:40;;;;;;;11.33;8.27;;;;;;;20.45;62.17;101295.94;5042992;28;20592;-76
2021/09/08 08:41:07;;;;;;;10.00;8.40;;;;;;;20.56;61.48;101294.94;5033152;28;20702;-75
2021/09/08 08:43:33;;;;;;;13.37;7.70;;;;;;;20.69;61.40;101295.47;5048327;28;20285;-76
2021/09/08 08:46:01;;;;;;;9.10;7.90;;;;;;;20.86;60.79;101290.28;5032473;28;20225;-76
2021/09/08 08:48:28;;;;;;;10.13;7.63;;;;;;;21.01;60.49;101280.66;5034931;28;20204;-76
2021/09/08 08:50:56;;;;;;;10.63;7.82;;;;;;;21.18;60.27;101284.44;5042358;28;20197;-75
2021/09/08 08:53:23;;;;;;;10.07;7.80;;;;;;;21.31;58.92;101279.56;5050622;28;20296;-75
2021/09/08 08:55:49;;;;;;;9.73;7.53;;;;;;;21.39;58.30;101275.06;5051542;28;20217;-77
2021/09/08 08:58:16;;;;;;;12.73;8.13;;;;;;;21.51;57.49;101275.72;5043972;28;20229;-77
2021/09/08 09:00:42;;;;;;;9.45;7.68;;;;;;;21.62;56.74;101280.94;5044850;28;20204;-77
2021/09/08 09:03:23;;;;;;;9.55;7.45;;;;;;;21.73;56.46;101277.13;5048597;28;20224;-75
2021/09/08 09:06:02;;;;;;;9.25;7.57;;;;;;;21.86;55.76;101277.59;5037027;28;20225;-77
2021/09/08 09:08:33;;;;;;;11.70;7.40;;;;;;;22.03;55.58;101271.38;5045303;28;20215;-76
2021/09/08 09:11:00;;;;;;;9.75;7.10;;;;;;;22.15;54.63;101271.97;5040217;28;20194;-76
2021/09/08 09:13:32;;;;;;;9.30;6.90;;;;;;;22.24;54.48;101267.44;5047110;28;20206;-76
2021/09/08 09:16:04;;;;;;;7.95;7.15;;;;;;;22.36;54.37;101267.06;5039268;28;20222;-75
2021/09/08 09:18:38;;;;;;;8.00;6.22;;;;;;;22.49;53.60;101258.47;5047122;28;20259;-77
2021/09/08 09:21:08;;;;;;;7.50;5.97;;;;;;;22.59;53.84;101261.94;5045678;28;20205;-76
2021/09/08 09:23:44;;;;;;;7.18;6.30;;;;;;;22.72;53.79;101256.94;5038648;28;20697;-76
2021/09/08 09:26:10;;;;;;;11.40;6.13;;;;;;;22.86;53.83;101252.78;5036665;28;20330;-76
2021/09/08 09:28:40;;;;;;;7.72;6.57;;;;;;;23.01;53.44;101253.88;5040142;28;20209;-76
2021/09/08 09:31:13;;;;;;;8.52;6.20;;;;;;;23.14;52.82;101245.25;5045689;28;20255;-75
2021/09/08 09:33:43;;;;;;;7.30;5.88;;;;;;;23.26;52.36;101248.53;5043171;28;20290;-76
2021/09/08 09:36:18;;;;;;;7.03;6.05;;;;;;;23.34;51.25;101240.41;5043025;28;20231;-73
2021/09/08 09:38:48;;;;;;;6.78;5.60;;;;;;;23.47;50.58;101241.63;5048025;28;20270;-72
2021/09/08 09:41:21;;;;;;;10.05;6.05;;;;;;;23.63;50.12;101240.00;5046416;28;20213;-72
2021/09/08 09:43:48;;;;;;;6.00;5.40;;;;;;;23.83;49.94;101235.91;5041607;28;20209;-72
2021/09/08 09:46:14;;;;;;;6.88;5.50;;;;;;;23.98;49.52;101234.25;5045231;28;20252;-72
2021/09/08 09:48:41;;;;;;;7.60;5.68;;;;;;;24.10;48.89;101232.88;5035957;28;20198;-72
2021/09/08 09:51:11;;;;;;;6.07;5.45;;;;;;;24.23;48.57;101233.25;5032972;28;20723;-72
2021/09/08 09:53:38;;;;;;;6.82;5.45;;;;;;;24.36;48.28;101231.88;5039051;28;20201;-72
2021/09/08 09:56:06;;;;;;;6.47;5.28;;;;;;;24.45;46.96;101230.84;5036811;28;20222;-72
2021/09/08 09:58:35;;;;;;;8.75;5.40;;;;;;;24.52;46.59;101231.84;5036052;28;20221;-72
2021/09/08 10:01:03;;;;;;;7.53;5.65;;;;;;;24.57;46.35;101213.94;5036011;28;20202;-72
2021/09/08 10:03:30;;;;;;;5.32;4.82;;;;;;;24.64;46.58;101218.69;5032093;28;20209;-71
2021/09/08 10:05:58;;;;;;;6.97;5.00;;;;;;;24.77;46.81;101202.66;5033263;28;20224;-72
2021/09/08 10:08:28;;;;;;;5.82;4.78;;;;;;;24.89;46.67;101195.81;5033997;28;20201;-72
2021/09/08 10:10:57;;;;;;;6.38;5.53;;;;;;;24.98;45.92;101193.91;5034250;28;20302;-72
2021/09/08 10:13:29;;;;;;;12.57;5.40;;;;;;;25.02;45.38;101192.53;5033245;28;20206;-72
2021/09/08 10:15:56;;;;;;;8.55;5.57;;;;;;;25.03;45.26;101188.78;5033519;28;20222;-72
2021/09/08 10:18:25;;;;;;;7.47;5.75;;;;;;;25.07;44.37;101181.97;5036651;28;20325;-71
2021/09/08 10:20:54;;;;;;;8.07;5.20;;;;;;;25.13;45.00;101181.22;5048503;28;20201;-73
2021/09/08 10:23:20;;;;;;;5.45;4.57;;;;;;;25.22;45.12;101178.28;5037755;28;20256;-71
2021/09/08 10:25:50;;;;;;;5.68;4.97;;;;;;;25.29;44.82;101172.94;5035787;28;20240;-71
2021/09/08 10:28:19;;;;;;;7.90;5.53;;;;;;;25.32;44.50;101180.75;5039889;28;20225;-71
2021/09/08 10:30:48;;;;;;;5.85;5.20;;;;;;;25.34;44.08;101173.25;5041321;28;20202;-71
2021/09/08 10:33:15;;;;;;;5.82;5.03;;;;;;;25.39;43.76;101173.56;5039415;28;20224;-71
2021/09/08 10:35:43;;;;;;;6.45;5.72;;;;;;;25.40;42.76;101171.69;5033915;28;20244;-71
2021/09/08 10:38:14;;;;;;;6.90;5.45;;;;;;;25.44;42.03;101165.69;5039736;28;20223;-71
2021/09/08 10:40:42;;;;;;;6.13;5.45;;;;;;;25.49;42.15;101168.72;5033881;28;20208;-71
2021/09/08 10:43:08;;;;;;;6.95;4.93;;;;;;;25.57;42.21;101154.19;5035267;28;20663;-71
2021/09/08 10:45:35;;;;;;;5.85;5.35;;;;;;;25.66;42.22;101154.97;5033482;28;20229;-71
2021/09/08 10:48:04;;;;;;;6.40;5.30;;;;;;;25.77;42.22;101149.13;5038876;28;20202;-72
2021/09/08 10:50:41;;;;;;;13.20;5.78;;;;;;;25.85;42.77;101147.13;5035435;28;20715;-72
2021/09/08 10:53:31;;;;;;;7.63;5.65;;;;;;;25.93;42.64;101140.78;5038485;28;20267;-71
2021/09/08 10:55:58;;;;;;;6.75;5.25;;;;;;;25.97;41.70;101135.78;5033899;28;20225;-72
2021/09/08 10:58:45;;;;;;;5.97;5.30;;;;;;;25.97;42.02;101142.09;5035333;28;20206;-72
2021/09/08 11:01:15;;;;;;;9.23;5.30;;;;;;;26.03;41.83;101135.88;5032940;28;20813;-71
2021/09/08 11:03:44;;;;;;;6.78;4.68;;;;;;;26.08;41.65;101135.34;5035394;28;20262;-71
2021/09/08 11:06:12;;;;;;;4.40;4.00;;;;;;;26.09;40.93;101129.69;5033922;28;21054;-72
2021/09/08 11:08:38;;;;;;;6.07;4.70;;;;;;;26.09;40.40;101123.38;5037001;28;20210;-71
2021/09/08 11:11:10;;;;;;;4.60;4.15;;;;;;;26.13;40.33;101121.97;5031792;28;20206;-71
2021/09/08 11:13:37;;;;;;;4.88;4.38;;;;;;;26.17;39.83;101126.00;5034901;28;20217;-72
2021/09/08 11:16:15;;;;;;;5.97;4.43;;;;;;;26.21;40.04;101113.69;5032642;28;20225;-71
2021/09/08 11:18:43;;;;;;;5.15;4.65;;;;;;;26.24;40.14;101111.44;5032378;28;20224;-71
2021/09/08 11:21:09;;;;;;;7.05;5.80;;;;;;;26.30;40.98;101109.88;5036242;28;20198;-71
2021/09/08 11:23:36;;;;;;;5.75;5.15;;;;;;;26.37;41.02;101099.88;5033407;28;20694;-72